Time;durP1;ratioP1;P1;durP2;ratioP2;P2;SDS_P1;SDS_P2;PMS_P1;PMS_P2;Temp;Humidity;BMP_temperature;BMP_pressure;BME280_temperature;BME280_humidity;BME280_pressure;Samples;Min_cycle;Max_cycle;Signal;HPM_P1;HPM_P2
2024/01/03 00:01:33;;;;;;;16.98;2.63;;;9.90;99.90;;;;;;6280631;22;20023;-74
2024/01/03 00:04:01;;;;;;;10.05;2.25;;;10.00;99.90;;;;;;6306014;22;20437;-74
2024/01/03 00:06:33;;;;;;;10.32;1.52;;;10.10;99.90;;;;;;6305994;22;20122;-74
2024/01/03 00:09:01;;;;;;;12.10;2.45;;;10.20;99.90;;;;;;6306077;22;20023;-74
2024/01/03 00:11:30;;;;;;;16.20;2.78;;;10.20;99.90;;;;;;6307247;22;20457;-74
2024/01/03 00:14:06;;;;;;;18.77;3.42;;;10.20;99.90;;;;;;6306033;22;20019;-74
2024/01/03 00:16:39;;;;;;;29.67;9.63;;;10.30;99.90;;;;;;6306266;22;20042;-74
2024/01/03 00:19:13;;;;;;;53.25;26.17;;;10.20;99.90;;;;;;6307304;22;20023;-74
2024/01/03 00:21:40;;;;;;;60.10;25.25;;;10.20;99.90;;;;;;6305962;22;20102;-73
2024/01/03 00:24:11;;;;;;;55.63;24.30;;;10.30;99.90;;;;;;6255293;22;20016;-74
2024/01/03 00:26:40;;;;;;;47.40;21.60;;;10.40;99.50;;;;;;6280415;22;20019;-75
2024/01/03 00:29:22;;;;;;;34.28;13.18;;;10.50;98.90;;;;;;6305966;22;20015;-74
2024/01/03 00:31:50;;;;;;;;;;;10.60;98.30;;;;;;6307385;22;20019;-74
2024/01/03 00:34:23;;;;;;;33.83;11.60;;;10.60;98.10;;;;;;6305639;22;19922;-74
2024/01/03 00:36:52;;;;;;;34.88;11.98;;;10.70;97.60;;;;;;6305392;22;20050;-73
2024/01/03 00:39:31;;;;;;;35.78;15.07;;;10.80;97.40;;;;;;6305729;22;20012;-73
2024/01/03 00:41:58;;;;;;;41.92;14.55;;;10.80;97.50;;;;;;6279903;22;20019;-74
2024/01/03 00:44:26;;;;;;;31.65;12.57;;;10.90;97.00;;;;;;6280401;22;20023;-73
2024/01/03 00:46:56;;;;;;;29.13;10.98;;;10.90;96.70;;;;;;6280098;22;20019;-73
2024/01/03 00:49:24;;;;;;;27.10;11.05;;;11.00;96.30;;;;;;6305720;22;20102;-74
2024/01/03 00:51:53;;;;;;;33.13;14.45;;;11.00;96.30;;;;;;6255550;22;20019;-75
2024/01/03 00:54:21;;;;;;;23.63;10.90;;;11.10;96.00;;;;;;6305694;22;20381;-74
2024/01/03 00:56:49;;;;;;;22.38;7.53;;;11.00;95.80;;;;;;6254878;22;20019;-74
2024/01/03 00:59:17;;;;;;;12.82;3.63;;;11.10;95.60;;;;;;6306967;22;20598;-74
2024/01/03 01:01:44;;;;;;;14.45;3.15;;;11.10;95.50;;;;;;6305378;22;20019;-73
2024/01/03 01:04:13;;;;;;;15.93;2.55;;;11.10;95.30;;;;;;6306959;22;20022;-74
2024/01/03 01:06:43;;;;;;;12.95;1.80;;;11.10;95.20;;;;;;6307091;22;20392;-73
2024/01/03 01:09:10;;;;;;;16.15;2.40;;;11.10;95.00;;;;;;6255454;22;20110;-74
2024/01/03 01:11:37;;;;;;;15.02;2.30;;;11.10;95.10;;;;;;6305531;22;20019;-73
2024/01/03 01:14:04;;;;;;;14.05;1.80;;;11.00;95.10;;;;;;6305229;22;20445;-73
2024/01/03 01:16:31;;;;;;;13.55;2.05;;;11.00;95.10;;;;;;6305192;22;20018;-73
2024/01/03 01:18:59;;;;;;;11.25;1.58;;;11.00;95.20;;;;;;6254753;22;20015;-73
2024/01/03 01:21:26;;;;;;;14.30;5.75;;;10.90;95.50;;;;;;6305355;22;20019;-73
2024/01/03 01:23:53;;;;;;;25.65;6.32;;;10.90;95.70;;;;;;6305449;22;20429;-73
2024/01/03 01:26:21;;;;;;;21.75;8.88;;;10.80;95.90;;;;;;6254771;22;20111;-73
2024/01/03 01:28:48;;;;;;;22.63;7.00;;;10.80;96.10;;;;;;6279674;22;20023;-73
2024/01/03 01:31:15;;;;;;;22.23;6.07;;;10.80;96.00;;;;;;6305267;22;20025;-73
2024/01/03 01:33:42;;;;;;;17.08;5.07;;;10.90;95.80;;;;;;6305110;22;20027;-73
2024/01/03 01:36:09;;;;;;;19.35;4.32;;;11.00;95.60;;;;;;6254457;22;20027;-73
2024/01/03 01:38:36;;;;;;;19.40;4.85;;;11.00;95.60;;;;;;6254056;22;20076;-73
2024/01/03 01:41:03;;;;;;;16.13;4.13;;;11.00;95.80;;;;;;6254815;22;20017;-73
2024/01/03 01:43:30;;;;;;;26.83;6.18;;;11.10;95.60;;;;;;6253941;22;20015;-73
2024/01/03 01:45:57;;;;;;;15.30;3.80;;;11.10;95.40;;;;;;6306703;22;20026;-73
2024/01/03 01:48:24;;;;;;;16.13;2.83;;;11.10;95.40;;;;;;6307074;22;20090;-73
2024/01/03 01:50:52;;;;;;;17.75;2.97;;;11.10;95.50;;;;;;6307097;22;20027;-73
2024/01/03 01:53:20;;;;;;;25.48;4.18;;;11.10;95.40;;;;;;6281650;22;20034;-73
2024/01/03 01:55:47;;;;;;;16.20;2.92;;;11.10;95.40;;;;;;6307001;22;20075;-74
2024/01/03 01:58:14;;;;;;;13.98;2.22;;;11.10;95.50;;;;;;6281407;22;20102;-73
2024/01/03 02:00:42;;;;;;;19.67;3.20;;;11.10;95.50;;;;;;6281447;22;20098;-73
2024/01/03 02:03:11;;;;;;;16.23;3.00;;;11.20;95.60;;;;;;6307431;22;20012;-73
2024/01/03 02:05:41;;;;;;;20.48;2.72;;;11.20;95.50;;;;;;6284291;22;20019;-73
2024/01/03 02:08:08;;;;;;;18.70;2.63;;;11.20;95.70;;;;;;6286291;22;20016;-73
2024/01/03 02:10:36;;;;;;;17.33;3.10;;;11.20;95.30;;;;;;6284311;22;20015;-73
2024/01/03 02:13:04;;;;;;;16.77;2.75;;;11.20;95.20;;;;;;6282814;22;20074;-73
2024/01/03 02:15:33;;;;;;;17.20;2.67;;;11.20;95.40;;;;;;6308243;22;20025;-73
2024/01/03 02:18:01;;;;;;;15.63;2.17;;;11.20;95.50;;;;;;6256804;22;20022;-73
2024/01/03 02:20:35;;;;;;;23.95;3.83;;;11.20;95.30;;;;;;6281727;22;20106;-73
2024/01/03 02:23:02;;;;;;;15.60;2.35;;;11.20;95.00;;;;;;6307081;22;20389;-73
2024/01/03 02:25:29;;;;;;;14.18;2.42;;;11.20;94.80;;;;;;6307214;22;20043;-74
2024/01/03 02:27:57;;;;;;;18.92;2.92;;;11.20;94.80;;;;;;6281605;22;20031;-73
2024/01/03 02:30:24;;;;;;;14.40;2.50;;;11.20;94.70;;;;;;6281226;22;20023;-73
2024/01/03 02:32:51;;;;;;;14.15;2.25;;;11.20;95.10;;;;;;6281601;22;20030;-73
2024/01/03 02:35:18;;;;;;;14.05;1.85;;;11.20;94.80;;;;;;6281209;22;20349;-73
2024/01/03 02:37:45;;;;;;;15.40;3.38;;;11.20;94.80;;;;;;6281089;22;20330;-74
2024/01/03 02:40:12;;;;;;;16.38;2.88;;;11.20;94.80;;;;;;6281020;22;20015;-73
2024/01/03 02:42:39;;;;;;;16.65;2.38;;;11.20;94.90;;;;;;6281324;22;20018;-73
2024/01/03 02:45:07;;;;;;;16.90;2.70;;;11.20;94.90;;;;;;6281239;22;20019;-73
2024/01/03 02:47:34;;;;;;;16.10;2.47;;;11.20;94.80;;;;;;6255779;22;20027;-73
2024/01/03 02:50:01;;;;;;;16.48;2.60;;;11.20;94.70;;;;;;6306756;22;20026;-73
2024/01/03 02:52:28;;;;;;;21.27;3.20;;;11.20;94.80;;;;;;6307064;22;20084;-73
2024/01/03 02:54:55;;;;;;;21.10;2.90;;;11.20;95.00;;;;;;6280865;22;20472;-74
2024/01/03 02:57:25;;;;;;;20.50;3.05;;;11.20;95.10;;;;;;6280837;22;20045;-73
2024/01/03 02:59:52;;;;;;;14.68;2.92;;;11.20;95.20;;;;;;6306711;22;20434;-73
2024/01/03 03:02:19;;;;;;;20.42;3.55;;;11.20;95.30;;;;;;6280675;22;20019;-73
2024/01/03 03:04:46;;;;;;;26.00;3.55;;;11.20;95.50;;;;;;6280884;22;20438;-72
2024/01/03 03:07:13;;;;;;;15.90;2.53;;;11.10;95.60;;;;;;6306075;22;20362;-73
2024/01/03 03:09:43;;;;;;;18.33;3.10;;;11.10;95.80;;;;;;6281067;22;20077;-83
2024/01/03 03:12:10;;;;;;;14.20;2.38;;;11.10;95.70;;;;;;6281021;22;20341;-73
2024/01/03 03:14:37;;;;;;;15.80;2.90;;;11.10;95.70;;;;;;6281026;22;20378;-73
2024/01/03 03:17:04;;;;;;;16.15;2.78;;;11.10;95.80;;;;;;6255250;22;20437;-72
2024/01/03 03:19:31;;;;;;;19.38;2.60;;;11.10;95.80;;;;;;6306510;22;20019;-73
2024/01/03 03:21:59;;;;;;;12.68;2.40;;;11.10;95.80;;;;;;6306319;22;20022;-73
2024/01/03 03:24:26;;;;;;;9.52;1.95;;;11.10;96.00;;;;;;6230997;22;20019;-73
2024/01/03 03:26:54;;;;;;;15.52;2.53;;;11.10;96.10;;;;;;6280704;22;20077;-72
2024/01/03 03:29:22;;;;;;;19.95;2.22;;;11.10;96.30;;;;;;6280904;22;20418;-72
2024/01/03 03:31:49;;;;;;;17.90;2.45;;;11.10;96.40;;;;;;6280915;22;20125;-73
2024/01/03 03:34:19;;;;;;;22.42;3.70;;;11.10;96.50;;;;;;6255402;22;20068;-73
2024/01/03 03:36:46;;;;;;;19.25;2.90;;;11.10;96.60;;;;;;6255185;22;20019;-73
2024/01/03 03:39:13;;;;;;;16.35;4.15;;;11.00;96.70;;;;;;6280824;22;20015;-74
2024/01/03 03:41:40;;;;;;;17.60;2.78;;;11.00;96.90;;;;;;6280878;22;20421;-72
2024/01/03 03:44:08;;;;;;;20.35;2.80;;;11.00;97.10;;;;;;6280527;22;20357;-72
2024/01/03 03:46:34;;;;;;;14.52;2.97;;;11.00;97.20;;;;;;6280739;22;20069;-73
2024/01/03 03:49:07;;;;;;;16.85;3.28;;;11.00;97.30;;;;;;6306128;22;20073;-73
2024/01/03 03:51:34;;;;;;;19.88;3.03;;;11.00;97.50;;;;;;6280958;22;20033;-73
2024/01/03 03:54:01;;;;;;;16.00;3.42;;;10.90;97.50;;;;;;6255059;22;20019;-73
2024/01/03 03:56:31;;;;;;;15.82;2.75;;;11.00;97.40;;;;;;6280192;22;20027;-73
2024/01/03 03:58:58;;;;;;;27.27;3.20;;;11.00;97.40;;;;;;6280912;22;20099;-73
2024/01/03 04:01:26;;;;;;;24.75;2.80;;;11.00;97.40;;;;;;6279986;22;20023;-74
2024/01/03 04:03:53;;;;;;;17.33;2.55;;;11.00;97.70;;;;;;6307331;22;20015;-73
2024/01/03 04:06:20;;;;;;;23.40;3.97;;;10.80;98.20;;;;;;6280068;22;20436;-73
2024/01/03 04:08:49;;;;;;;19.48;2.78;;;10.70;98.70;;;;;;6282846;22;20053;-74
2024/01/03 04:11:16;;;;;;;21.42;3.33;;;10.60;99.00;;;;;;6285853;22;20022;-73
2024/01/03 04:13:43;;;;;;;16.95;3.63;;;10.70;99.10;;;;;;6285735;22;20050;-73
2024/01/03 04:16:10;;;;;;;19.45;3.17;;;10.70;98.90;;;;;;6285612;22;20026;-74
2024/01/03 04:18:37;;;;;;;23.20;3.40;;;10.80;98.80;;;;;;6285674;22;20018;-73
2024/01/03 04:21:09;;;;;;;16.58;3.17;;;10.70;98.60;;;;;;6310966;22;20015;-73
2024/01/03 04:23:36;;;;;;;17.70;4.03;;;10.80;98.50;;;;;;6285350;22;20441;-73
2024/01/03 04:26:03;;;;;;;17.27;3.00;;;10.80;98.30;;;;;;6260001;22;20018;-73
2024/01/03 04:28:30;;;;;;;24.42;3.63;;;10.80;98.30;;;;;;6259124;22;20019;-73
2024/01/03 04:30:57;;;;;;;22.83;3.20;;;10.80;98.30;;;;;;6285124;22;20029;-73
2024/01/03 04:33:24;;;;;;;14.88;2.45;;;10.80;98.30;;;;;;6310807;22;20042;-73
2024/01/03 04:35:51;;;;;;;21.48;4.15;;;10.90;98.30;;;;;;6311274;22;20437;-73
2024/01/03 04:38:18;;;;;;;18.67;3.35;;;10.90;98.30;;;;;;6310990;22;20060;-73
2024/01/03 04:40:45;;;;;;;19.45;2.90;;;10.90;98.30;;;;;;6310444;22;20026;-74
2024/01/03 04:43:13;;;;;;;17.05;2.92;;;10.90;98.30;;;;;;6285389;22;20011;-73
2024/01/03 04:45:40;;;;;;;22.25;3.25;;;11.00;98.20;;;;;;6311030;22;20038;-74
2024/01/03 04:48:07;;;;;;;19.92;3.38;;;11.00;98.20;;;;;;6310651;22;20026;-73
2024/01/03 04:50:34;;;;;;;22.08;3.20;;;11.00;98.20;;;;;;6338320;22;20441;-73
2024/01/03 04:53:02;;;;;;;18.52;3.50;;;11.00;98.20;;;;;;6311102;22;20019;-73
2024/01/03 04:55:29;;;;;;;19.58;3.03;;;11.00;98.30;;;;;;6285406;22;20018;-74
2024/01/03 04:57:57;;;;;;;21.13;4.07;;;11.00;98.30;;;;;;6310928;22;20011;-73
2024/01/03 05:00:25;;;;;;;23.00;5.45;;;11.00;98.20;;;;;;6285361;22;20015;-74
2024/01/03 05:02:54;;;;;;;25.05;5.07;;;11.00;98.20;;;;;;6310693;22;20021;-73
2024/01/03 05:05:21;;;;;;;23.98;6.20;;;11.00;98.10;;;;;;6311047;22;20011;-73
2024/01/03 05:07:48;;;;;;;24.58;6.18;;;11.00;97.90;;;;;;6284913;22;20027;-73
2024/01/03 05:10:15;;;;;;;24.35;6.18;;;11.00;97.70;;;;;;6285140;22;20029;-74
2024/01/03 05:12:42;;;;;;;24.02;6.15;;;10.90;97.50;;;;;;6310724;22;20030;-74
2024/01/03 05:15:10;;;;;;;21.70;6.13;;;11.00;97.40;;;;;;6310730;22;20128;-73
2024/01/03 05:17:37;;;;;;;24.40;5.55;;;10.90;97.50;;;;;;6285293;22;20022;-73
2024/01/03 05:20:08;;;;;;;21.20;5.43;;;10.90;97.60;;;;;;6287145;22;20049;-74
2024/01/03 05:22:35;;;;;;;25.30;6.60;;;10.80;97.80;;;;;;6287508;22;20019;-74
2024/01/03 05:25:02;;;;;;;21.10;5.60;;;10.80;98.00;;;;;;6312579;22;20018;-73
2024/01/03 05:27:29;;;;;;;19.00;4.38;;;10.70;98.20;;;;;;6287200;22;20056;-73
2024/01/03 05:29:56;;;;;;;16.70;4.07;;;10.70;98.50;;;;;;6287209;22;20120;-73
2024/01/03 05:32:25;;;;;;;12.45;3.40;;;10.60;98.60;;;;;;6287450;22;20030;-73
2024/01/03 05:34:52;;;;;;;14.25;3.30;;;10.60;98.80;;;;;;6312865;22;20122;-74
2024/01/03 05:37:19;;;;;;;14.52;2.78;;;10.60;98.90;;;;;;6312787;22;20015;-74
2024/01/03 05:39:49;;;;;;;12.27;2.38;;;10.70;99.10;;;;;;6340066;22;20038;-74
2024/01/03 05:42:16;;;;;;;13.98;3.08;;;10.60;99.30;;;;;;6340128;22;20015;-73
2024/01/03 05:44:43;;;;;;;19.00;2.42;;;10.60;99.60;;;;;;6287502;22;20040;-74
2024/01/03 05:47:10;;;;;;;12.15;2.20;;;10.50;99.90;;;;;;6320720;22;20011;-73
2024/01/03 05:49:37;;;;;;;18.00;3.42;;;10.40;99.90;;;;;;6287813;22;20015;-74
2024/01/03 05:52:04;;;;;;;13.00;2.92;;;10.20;99.90;;;;;;6312704;22;20025;-73
2024/01/03 05:54:32;;;;;;;11.55;2.78;;;10.10;99.90;;;;;;6312867;22;20405;-73
2024/01/03 05:57:03;;;;;;;12.30;1.70;;;10.00;99.90;;;;;;6287060;22;20019;-74
2024/01/03 05:59:30;;;;;;;10.93;2.13;;;9.90;99.90;;;;;;6262250;22;20018;-73
2024/01/03 06:01:57;;;;;;;11.90;2.17;;;9.90;99.90;;;;;;6286682;22;20019;-73
2024/01/03 06:04:25;;;;;;;14.20;2.95;;;9.90;99.90;;;;;;6312505;22;20018;-73
2024/01/03 06:06:52;;;;;;;14.02;3.05;;;9.90;99.90;;;;;;6286784;22;20029;-73
2024/01/03 06:09:19;;;;;;;11.43;2.30;;;9.90;99.90;;;;;;6286123;22;20018;-73
2024/01/03 06:11:46;;;;;;;7.53;1.88;;;9.90;99.90;;;;;;6311991;22;20445;-73
2024/01/03 06:14:13;;;;;;;8.60;2.58;;;9.90;99.90;;;;;;6312506;22;20011;-73
2024/01/03 06:16:40;;;;;;;8.40;2.38;;;9.90;99.90;;;;;;6286524;22;20022;-73
2024/01/03 06:19:07;;;;;;;13.13;2.20;;;9.90;99.90;;;;;;6312291;22;20068;-73
2024/01/03 06:21:35;;;;;;;6.90;2.08;;;10.00;99.90;;;;;;6339619;22;20015;-73
2024/01/03 06:24:02;;;;;;;7.53;1.90;;;10.00;99.90;;;;;;6261243;22;20334;-73
2024/01/03 06:26:30;;;;;;;9.57;1.92;;;9.90;99.90;;;;;;6311979;22;20025;-73
2024/01/03 06:28:57;;;;;;;8.88;1.85;;;10.00;99.90;;;;;;6286651;22;20097;-73
2024/01/03 06:31:25;;;;;;;6.25;1.48;;;10.00;99.90;;;;;;6286468;22;20018;-73
2024/01/03 06:33:52;;;;;;;9.27;1.55;;;10.00;99.90;;;;;;6286597;22;20046;-73
2024/01/03 06:36:20;;;;;;;7.50;1.65;;;10.10;99.90;;;;;;6286587;22;20023;-73
2024/01/03 06:38:48;;;;;;;10.05;1.75;;;10.10;99.90;;;;;;6339222;22;20425;-73
2024/01/03 06:41:15;;;;;;;4.68;1.50;;;10.10;99.90;;;;;;6312446;22;20085;-73
2024/01/03 06:43:42;;;;;;;8.52;1.48;;;10.20;99.90;;;;;;6260856;22;20341;-73
2024/01/03 06:46:09;;;;;;;10.07;2.20;;;10.10;99.90;;;;;;6311936;22;20023;-73
2024/01/03 06:48:36;;;;;;;4.72;1.05;;;10.20;99.90;;;;;;6286338;22;20330;-73
2024/01/03 06:51:04;;;;;;;6.22;1.50;;;10.20;99.90;;;;;;6311874;22;20399;-73
2024/01/03 06:53:34;;;;;;;6.13;1.52;;;10.20;99.90;;;;;;6339214;22;20093;-73
2024/01/03 06:56:01;;;;;;;5.40;1.27;;;10.20;99.90;;;;;;6339425;22;20019;-73
2024/01/03 06:58:28;;;;;;;5.07;1.00;;;10.20;99.90;;;;;;6311466;22;20106;-73
2024/01/03 07:00:55;;;;;;;3.67;0.82;;;10.20;99.90;;;;;;6286464;22;20018;-73
2024/01/03 07:03:22;;;;;;;3.00;1.02;;;10.20;99.90;;;;;;6285963;22;20025;-73
2024/01/03 07:05:49;;;;;;;5.53;1.30;;;10.20;99.90;;;;;;6311431;22;20026;-73
2024/01/03 07:08:16;;;;;;;5.22;0.88;;;10.20;99.90;;;;;;6339424;22;20068;-73
2024/01/03 07:10:43;;;;;;;5.38;0.60;;;10.20;99.90;;;;;;6286098;22;20057;-74
2024/01/03 07:13:11;;;;;;;4.75;0.60;;;10.20;99.90;;;;;;6286129;22;20019;-73
2024/01/03 07:15:38;;;;;;;6.63;0.70;;;10.20;99.90;;;;;;6311282;22;20019;-73
2024/01/03 07:18:07;;;;;;;4.35;0.63;;;10.20;99.90;;;;;;6286226;22;20359;-73
2024/01/03 07:20:35;;;;;;;3.00;0.60;;;10.20;99.90;;;;;;6286391;22;20436;-73
2024/01/03 07:23:02;;;;;;;4.68;0.40;;;10.10;99.90;;;;;;6260424;22;20358;-73
2024/01/03 07:25:29;;;;;;;2.17;0.40;;;10.10;99.90;;;;;;6339014;22;20011;-73
2024/01/03 07:27:56;;;;;;;3.80;0.40;;;9.90;99.90;;;;;;6311729;22;20019;-73
2024/01/03 07:30:25;;;;;;;1.85;0.35;;;9.80;99.90;;;;;;6285730;22;20026;-73
2024/01/03 07:32:56;;;;;;;2.45;0.30;;;9.60;99.90;;;;;;6261093;22;20057;-73
2024/01/03 07:35:24;;;;;;;3.05;0.30;;;9.50;99.90;;;;;;6311274;22;20029;-74
2024/01/03 07:37:51;;;;;;;2.13;0.32;;;9.50;99.90;;;;;;6311262;22;20018;-73
2024/01/03 07:40:18;;;;;;;2.47;0.20;;;9.40;99.90;;;;;;6285602;22;20462;-74
2024/01/03 07:42:46;;;;;;;2.47;0.20;;;9.30;99.90;;;;;;6286137;22;20380;-74
2024/01/03 07:45:13;;;;;;;2.83;0.38;;;9.20;99.90;;;;;;6311624;22;20018;-73
2024/01/03 07:47:40;;;;;;;2.97;0.30;;;9.20;99.90;;;;;;6339008;22;20014;-73
2024/01/03 07:50:08;;;;;;;1.50;0.10;;;9.10;99.90;;;;;;6311702;22;20336;-73
2024/01/03 07:52:35;;;;;;;0.73;0.15;;;9.10;99.90;;;;;;6285510;22;20448;-73
2024/01/03 07:55:02;;;;;;;2.08;0.30;;;9.10;99.90;;;;;;6311114;22;20041;-73
2024/01/03 07:57:29;;;;;;;2.75;0.20;;;9.10;99.90;;;;;;6286027;22;20072;-74
2024/01/03 07:59:56;;;;;;;0.98;0.20;;;9.10;99.90;;;;;;6311309;22;20019;-73
2024/01/03 08:02:23;;;;;;;2.80;0.20;;;9.10;99.90;;;;;;6285478;22;20018;-73
2024/01/03 08:04:51;;;;;;;2.28;0.20;;;9.00;99.90;;;;;;6285486;22;20322;-73
2024/01/03 08:07:18;;;;;;;3.38;0.25;;;9.00;99.90;;;;;;6285296;22;20510;-73
2024/01/03 08:09:45;;;;;;;2.00;0.32;;;9.00;99.90;;;;;;6285831;22;20025;-74
2024/01/03 08:12:12;;;;;;;3.13;0.30;;;9.00;99.90;;;;;;6311265;22;20021;-74
2024/01/03 08:14:39;;;;;;;4.20;0.28;;;9.00;99.90;;;;;;6285588;22;20353;-73
2024/01/03 08:17:06;;;;;;;3.10;0.20;;;9.00;99.90;;;;;;6285372;22;20399;-73
2024/01/03 08:19:33;;;;;;;2.78;0.30;;;9.00;99.90;;;;;;6285368;22;20018;-73
2024/01/03 08:22:01;;;;;;;0.38;0.08;;;9.10;99.90;;;;;;6338708;22;20019;-73
2024/01/03 08:24:28;;;;;;;1.80;0.17;;;9.10;99.90;;;;;;6286046;22;20022;-74
2024/01/03 08:26:58;;;;;;;3.40;0.20;;;9.10;99.90;;;;;;6261389;22;20053;-74
2024/01/03 08:29:25;;;;;;;0.98;0.17;;;9.20;99.90;;;;;;6311262;22;20023;-73
2024/01/03 08:31:55;;;;;;;2.08;0.30;;;9.20;99.90;;;;;;6338656;22;20018;-74
2024/01/03 08:34:22;;;;;;;4.18;0.50;;;9.20;99.90;;;;;;6260838;22;20047;-73
2024/01/03 08:36:49;;;;;;;1.73;0.30;;;9.30;99.90;;;;;;6338506;22;20068;-74
2024/01/03 08:39:16;;;;;;;5.43;0.70;;;9.30;99.90;;;;;;6285207;22;20019;-73
2024/01/03 08:41:43;;;;;;;3.30;0.65;;;9.30;99.90;;;;;;6285232;22;20464;-74
2024/01/03 08:44:10;;;;;;;4.47;0.70;;;9.30;99.90;;;;;;6285142;22;20031;-74
2024/01/03 08:46:41;;;;;;;2.85;0.70;;;9.30;99.90;;;;;;6285430;22;20014;-73
2024/01/03 08:49:08;;;;;;;3.88;0.77;;;9.30;99.90;;;;;;6338358;22;20021;-73
2024/01/03 08:51:36;;;;;;;13.52;1.40;;;9.30;99.90;;;;;;6310636;22;20511;-73
2024/01/03 08:54:03;;;;;;;3.47;0.90;;;9.40;99.90;;;;;;6310461;22;20543;-73
2024/01/03 08:56:32;;;;;;;6.55;1.20;;;9.40;99.90;;;;;;6311353;22;20459;-73
2024/01/03 08:58:59;;;;;;;7.15;1.42;;;9.40;99.90;;;;;;6310438;22;20445;-73
2024/01/03 09:01:27;;;;;;;4.97;1.30;;;9.40;99.90;;;;;;6310990;22;20015;-73
2024/01/03 09:03:54;;;;;;;3.20;1.45;;;9.40;99.90;;;;;;6285643;22;20459;-73
2024/01/03 09:06:23;;;;;;;5.10;1.20;;;9.40;99.90;;;;;;6285378;22;20068;-73
2024/01/03 09:08:50;;;;;;;7.65;1.60;;;9.30;99.90;;;;;;6310447;22;20030;-73
2024/01/03 09:11:22;;;;;;;8.35;2.70;;;9.40;99.90;;;;;;6285043;22;20031;-73
2024/01/03 09:13:49;;;;;;;8.23;1.83;;;9.30;99.90;;;;;;6338474;22;20322;-74
2024/01/03 09:16:19;;;;;;;4.22;1.65;;;9.30;99.90;;;;;;6310954;22;20019;-74
2024/01/03 09:18:47;;;;;;;8.15;1.60;;;9.30;99.90;;;;;;6310788;22;20065;-72
2024/01/03 09:21:15;;;;;;;5.28;2.00;;;9.30;99.90;;;;;;6285325;22;20033;-73
2024/01/03 09:23:42;;;;;;;5.53;2.05;;;9.30;99.90;;;;;;6284969;22;20444;-72
2024/01/03 09:26:10;;;;;;;8.30;2.78;;;9.40;99.90;;;;;;6311754;22;20470;-71
2024/01/03 09:28:38;;;;;;;7.28;2.40;;;9.40;99.90;;;;;;6293875;22;20034;-72
2024/01/03 09:31:09;;;;;;;10.10;2.80;;;9.40;99.90;;;;;;6311161;22;20053;-73
2024/01/03 09:33:36;;;;;;;6.30;2.28;;;9.50;99.90;;;;;;6338628;22;20088;-72
2024/01/03 09:36:04;;;;;;;6.53;2.88;;;9.40;99.90;;;;;;6311323;22;20398;-72
2024/01/03 09:38:31;;;;;;;12.00;2.90;;;9.50;99.90;;;;;;6310720;22;20014;-72
2024/01/03 09:40:59;;;;;;;6.60;2.10;;;9.50;99.90;;;;;;6285154;22;20025;-73
2024/01/03 09:43:26;;;;;;;11.05;2.42;;;9.50;99.90;;;;;;6284955;22;20026;-72
2024/01/03 09:45:54;;;;;;;8.23;2.67;;;9.50;99.90;;;;;;6310917;22;20011;-73
2024/01/03 09:48:21;;;;;;;12.43;2.22;;;9.50;99.90;;;;;;6285107;22;20044;-74
2024/01/03 09:50:50;;;;;;;6.60;2.20;;;9.40;99.90;;;;;;6285654;22;20023;-72
2024/01/03 09:53:19;;;;;;;7.78;2.30;;;9.40;99.90;;;;;;6310763;22;20441;-72
2024/01/03 09:55:46;;;;;;;9.77;2.35;;;9.40;99.90;;;;;;6310198;22;20079;-72
2024/01/03 09:58:13;;;;;;;14.60;2.35;;;9.50;99.90;;;;;;6259327;22;20023;-72
2024/01/03 10:00:40;;;;;;;9.75;2.45;;;9.50;99.90;;;;;;6284611;22;20019;-74
2024/01/03 10:03:07;;;;;;;12.30;2.10;;;9.50;99.90;;;;;;6337939;22;20395;-72
2024/01/03 10:05:35;;;;;;;9.77;2.88;;;9.50;99.90;;;;;;6285454;22;20015;-73
2024/01/03 10:08:18;;;;;;;10.23;1.73;;;9.50;99.90;;;;;;6287170;22;20023;-74
2024/01/03 10:10:46;;;;;;;7.22;1.60;;;9.50;99.90;;;;;;6339857;22;20025;-76
2024/01/03 10:13:17;;;;;;;10.98;2.00;;;9.40;99.90;;;;;;6312545;22;20021;-74
2024/01/03 10:15:46;;;;;;;7.88;1.48;;;9.50;99.90;;;;;;6338395;22;20113;-75
2024/01/03 10:18:17;;;;;;;15.93;2.20;;;9.50;99.90;;;;;;6340031;22;20037;-76
2024/01/03 10:20:49;;;;;;;8.93;2.53;;;9.40;99.90;;;;;;6313818;22;20017;-75
2024/01/03 10:23:19;;;;;;;19.02;3.28;;;9.50;99.90;;;;;;6286802;22;20023;-75
2024/01/03 10:25:46;;;;;;;14.90;2.58;;;9.50;99.90;;;;;;6286952;22;20322;-75
2024/01/03 10:28:17;;;;;;;16.10;3.33;;;9.60;99.90;;;;;;6286782;22;20021;-75
2024/01/03 10:30:52;;;;;;;16.23;2.30;;;9.60;99.90;;;;;;6286830;22;20019;-72
2024/01/03 10:33:20;;;;;;;8.57;1.95;;;9.60;99.90;;;;;;6339343;22;20015;-73
2024/01/03 10:35:47;;;;;;;18.70;2.95;;;9.60;99.90;;;;;;6286301;22;20118;-72
2024/01/03 10:38:17;;;;;;;12.32;2.85;;;9.60;99.90;;;;;;6312336;22;20015;-72
2024/01/03 10:40:45;;;;;;;9.65;2.42;;;9.60;99.90;;;;;;6286175;22;20352;-72
2024/01/03 10:43:15;;;;;;;13.85;2.85;;;9.60;99.90;;;;;;6339959;22;20375;-72
2024/01/03 10:45:42;;;;;;;13.77;2.83;;;9.70;99.90;;;;;;6287440;22;20076;-72
2024/01/03 10:48:09;;;;;;;16.27;3.20;;;9.70;99.90;;;;;;6286683;22;20030;-72
2024/01/03 10:50:38;;;;;;;15.40;2.65;;;9.80;99.90;;;;;;6311840;22;20018;-72
2024/01/03 10:53:11;;;;;;;12.27;3.25;;;9.90;99.90;;;;;;6286360;22;20097;-72
2024/01/03 10:55:40;;;;;;;16.13;2.67;;;10.00;99.90;;;;;;6339151;22;20011;-71
2024/01/03 10:58:18;;;;;;;13.63;2.78;;;10.10;99.90;;;;;;6312016;22;20064;-72
2024/01/03 11:01:09;;;;;;;20.58;3.35;;;10.20;99.90;;;;;;6311824;22;20042;-72
2024/01/03 11:03:55;;;;;;;18.33;4.13;;;10.20;99.90;;;;;;6311897;22;20429;-76
2024/01/03 11:07:00;;;;;;;19.10;3.58;;;10.20;99.90;;;;;;6339331;22;20076;-76
2024/01/03 11:09:28;;;;;;;16.30;4.10;;;10.20;99.90;;;;;;6213245;23;20521;-76
2024/01/03 11:12:18;;;;;;;15.90;3.63;;;10.20;99.90;;;;;;6268469;22;20023;-76
2024/01/03 11:14:45;;;;;;;16.35;3.70;;;10.20;99.90;;;;;;6311853;22;20041;-76
2024/01/03 11:17:12;;;;;;;18.35;3.90;;;10.20;99.90;;;;;;6286273;22;20015;-76
2024/01/03 11:19:39;;;;;;;15.00;3.10;;;10.20;99.90;;;;;;6260561;22;20340;-76
2024/01/03 11:22:07;;;;;;;16.58;2.38;;;10.30;99.90;;;;;;6339373;22;20021;-76
2024/01/03 11:24:34;;;;;;;14.90;3.28;;;10.30;99.90;;;;;;6286136;22;20437;-75
2024/01/03 11:27:04;;;;;;;16.92;3.22;;;10.30;99.90;;;;;;6338042;22;20019;-75
2024/01/03 11:29:36;;;;;;;17.40;3.63;;;10.40;99.90;;;;;;6311878;22;20471;-75
2024/01/03 11:32:29;;;;;;;16.50;2.92;;;10.50;99.90;;;;;;6311391;22;20023;-75
2024/01/03 11:35:08;;;;;;;11.63;3.05;;;10.50;99.90;;;;;;6313089;22;20472;-76
2024/01/03 11:37:38;;;;;;;14.10;3.03;;;10.50;99.90;;;;;;6311445;22;20054;-76
2024/01/03 11:40:08;;;;;;;13.85;2.88;;;10.50;99.90;;;;;;6286299;22;20089;-76
2024/01/03 11:42:38;;;;;;;14.23;2.38;;;10.50;99.90;;;;;;6285598;22;20053;-76
2024/01/03 11:45:11;;;;;;;22.30;3.05;;;10.60;99.90;;;;;;6286256;22;20495;-75
2024/01/03 11:47:46;;;;;;;16.10;2.15;;;10.70;99.90;;;;;;6311281;22;20042;-76
2024/01/03 11:50:16;;;;;;;15.70;2.85;;;10.70;99.90;;;;;;6286210;22;20479;-76
2024/01/03 11:52:49;;;;;;;17.73;2.08;;;10.70;99.90;;;;;;6311789;22;20023;-76
2024/01/03 11:55:18;;;;;;;18.75;2.72;;;10.70;99.90;;;;;;6286998;22;20362;-80
2024/01/03 11:57:47;;;;;;;18.30;3.33;;;10.70;99.90;;;;;;6286335;22;20057;-81
2024/01/03 12:00:20;;;;;;;19.92;4.60;;;10.70;99.90;;;;;;6285772;22;20106;-84
2024/01/03 12:02:49;;;;;;;19.67;3.53;;;10.70;99.90;;;;;;6313214;22;20064;-82
2024/01/03 12:05:17;;;;;;;21.08;4.05;;;10.70;99.90;;;;;;6286200;22;20014;-83
2024/01/03 12:07:44;;;;;;;17.80;2.53;;;10.80;99.90;;;;;;6311910;22;20014;-83
2024/01/03 12:10:16;;;;;;;19.23;4.57;;;10.80;99.90;;;;;;6312796;22;20114;-82
2024/01/03 12:12:44;;;;;;;14.07;3.35;;;10.90;99.90;;;;;;6311773;22;20019;-81
2024/01/03 12:15:24;;;;;;;15.65;3.10;;;10.90;99.90;;;;;;6286054;22;20023;-81
2024/01/03 12:18:09;;;;;;;15.27;4.18;;;10.90;99.90;;;;;;6315872;22;20023;-77
2024/01/03 12:20:36;;;;;;;18.63;3.28;;;10.80;99.90;;;;;;6285636;22;20043;-77
2024/01/03 12:23:13;;;;;;;21.60;4.00;;;10.80;99.90;;;;;;6285737;22;20076;-77
2024/01/03 12:25:42;;;;;;;19.73;3.78;;;10.90;99.90;;;;;;6338406;22;20022;-77
2024/01/03 12:28:10;;;;;;;17.90;3.00;;;10.90;99.90;;;;;;6285985;22;20093;-78
2024/01/03 12:30:37;;;;;;;15.18;3.35;;;10.90;99.90;;;;;;6285894;22;20026;-78
2024/01/03 12:33:12;;;;;;;18.13;3.40;;;10.90;99.90;;;;;;6312344;22;20011;-86
2024/01/03 12:35:41;;;;;;;15.73;3.08;;;10.80;99.90;;;;;;6288473;22;20121;-84
2024/01/03 12:38:09;;;;;;;15.00;2.40;;;10.80;99.90;;;;;;6286015;22;20105;-85
2024/01/03 12:40:36;;;;;;;10.45;2.88;;;10.60;99.90;;;;;;6286161;22;20072;-84
2024/01/03 12:43:03;;;;;;;9.00;2.10;;;10.50;99.90;;;;;;6286093;22;20019;-84
2024/01/03 12:45:30;;;;;;;11.55;2.50;;;10.40;99.90;;;;;;6286224;22;20090;-84
2024/01/03 12:47:57;;;;;;;10.40;2.20;;;10.30;99.90;;;;;;6285473;22;20445;-84
2024/01/03 12:50:25;;;;;;;11.70;1.83;;;10.30;99.90;;;;;;6285961;22;20026;-83